This is the latest recevied weather packets stored in our database for station/object K6CQU-13. If no packets are shown the sender has not sent any weather packets the latest 10 day(s).
| Time | Temp. | Humidity | Pressure | Rain* | Wind** | Luminosity | Snow |
|---|---|---|---|---|---|---|---|
| 1787961318 | 22.78° C | 60% | 1013.6 hPa | 0 mm | - | 128 W/m² | - |
| 1787961018 | 22.78° C | 59% | 1013.7 hPa | 0 mm | - | 116 W/m² | - |
| 1787960718 | 22.78° C | 58% | 1013.5 hPa | 0 mm | - | 106 W/m² | - |
| 1787960418 | 22.78° C | 59% | 1013.6 hPa | 0 mm | - | 101 W/m² | - |
| 1787960116 | 23.33° C | 58% | 1013.5 hPa | 0 mm | - | 105 W/m² | - |
| 1787959818 | 23.33° C | 58% | 1013.5 hPa | 0 mm | - | 118 W/m² | - |
| 1787959518 | 23.89° C | 57% | 1013.5 hPa | 0 mm | - | 129 W/m² | - |
| 1787959218 | 23.33° C | 58% | 1013.6 hPa | 0 mm | - | 134 W/m² | - |
| 1787958918 | 23.33° C | 58% | 1013.6 hPa | 0 mm | - | 141 W/m² | - |
| 1787958618 | 23.33° C | 58% | 1013.7 hPa | 0 mm | - | 139 W/m² | - |
| 1787958318 | 23.33° C | 57% | 1013.8 hPa | 0 mm | - | 134 W/m² | - |
| 1787958018 | 23.33° C | 57% | 1014 hPa | 0 mm | - | 129 W/m² | - |
| 1787957718 | 23.33° C | 58% | 1014 hPa | 0 mm | - | 135 W/m² | - |
| 1787957418 | 23.33° C | 59% | 1014 hPa | 0 mm | - | 156 W/m² | - |
| 1787957118 | 23.89° C | 59% | 1014.1 hPa | 0 mm | - | 185 W/m² | - |
| 1787956818 | 24.44° C | 56% | 1014.1 hPa | 0 mm | - | 217 W/m² | - |
| 1787956518 | 25° C | 54% | 1014.1 hPa | 0 mm | - | 244 W/m² | - |
| 1787956218 | 25° C | 53% | 1014.1 hPa | 0 mm | - | 305 W/m² | - |
| 1787955918 | 25.56° C | 52% | 1014.2 hPa | 0 mm | - | 321 W/m² | - |
| 1787955618 | 26.11° C | 51% | 1014.1 hPa | 0 mm | - | 314 W/m² | - |
| 1787955318 | 26.67° C | 51% | 1014.2 hPa | 0 mm | - | 331 W/m² | - |
| 1787955017 | 27.22° C | 48% | 1014.3 hPa | 0 mm | - | 344 W/m² | - |
| 1787954717 | 27.78° C | 45% | 1014.3 hPa | 0 mm | - | 305 W/m² | - |
| 1787954418 | 28.33° C | 47% | 1014.3 hPa | 0 mm | - | 308 W/m² | - |
| 1787954117 | 27.78° C | 48% | 1014.4 hPa | 0 mm | - | 931 W/m² | - |
* Rain latest hour (hover to see other rain measurements)
** Current wind speed in m/s (hover to see current wind gust speed)